createdAt,value
2018-12-24T00:01:54.012Z,91.87
2018-12-24T00:04:25.066Z,92.00
2018-12-24T00:06:56.227Z,92.16
2018-12-24T00:09:27.400Z,92.08
2018-12-24T00:12:06.814Z,91.98
2018-12-24T00:14:31.264Z,91.96
2018-12-24T00:17:02.673Z,92.36
2018-12-24T00:19:35.322Z,92.47
2018-12-24T00:22:08.047Z,92.58
2018-12-24T00:24:39.124Z,92.51
2018-12-24T00:27:10.226Z,92.62
2018-12-24T00:29:41.140Z,92.51
2018-12-24T00:32:12.276Z,92.37
2018-12-24T00:34:43.284Z,92.15
2018-12-24T00:37:14.127Z,92.10
2018-12-24T00:39:45.039Z,91.99
2018-12-24T00:42:16.469Z,92.21
2018-12-24T00:44:47.310Z,92.30
2018-12-24T00:49:55.189Z,92.49
2018-12-24T00:55:02.080Z,92.58
2018-12-24T00:57:33.027Z,92.85
2018-12-24T01:00:04.096Z,92.86
2018-12-24T01:02:35.210Z,92.98
2018-12-24T01:07:42.173Z,93.17
2018-12-24T01:10:13.309Z,93.10
2018-12-24T01:12:44.426Z,92.98
2018-12-24T01:15:15.298Z,92.91
2018-12-24T01:17:46.268Z,93.17
2018-12-24T01:20:17.138Z,93.29
2018-12-24T01:22:48.047Z,93.55
2018-12-24T01:25:19.307Z,93.81
2018-12-24T01:27:50.255Z,93.86
2018-12-24T01:30:21.401Z,94.06
2018-12-24T01:32:52.300Z,94.05
2018-12-24T01:35:23.205Z,94.10
2018-12-24T01:37:54.217Z,94.07
2018-12-24T01:40:25.094Z,93.98
2018-12-24T01:42:56.390Z,93.88
2018-12-24T01:45:27.312Z,94.24
2018-12-24T01:47:58.214Z,94.35
2018-12-24T01:50:29.323Z,94.43
2018-12-24T01:53:00.503Z,94.74
2018-12-24T01:58:08.102Z,94.86
2018-12-24T02:00:39.121Z,94.79
2018-12-24T02:03:10.095Z,94.86
2018-12-24T02:05:41.012Z,94.93
2018-12-24T02:10:48.108Z,94.92
2018-12-24T02:13:19.325Z,94.99
2018-12-24T02:15:50.386Z,95.13
2018-12-24T02:18:21.307Z,95.24
2018-12-24T02:20:52.348Z,95.25
2018-12-24T02:23:23.223Z,95.10
2018-12-24T02:25:54.104Z,95.07
2018-12-24T02:28:25.418Z,95.06
2018-12-24T02:31:34.911Z,95.13
2018-12-24T02:34:06.270Z,95.28
2018-12-24T02:36:37.256Z,95.27
2018-12-24T02:39:09.359Z,95.33
2018-12-24T02:41:40.202Z,95.45
2018-12-24T02:44:11.400Z,95.64
2018-12-24T02:46:42.292Z,95.74
2018-12-24T02:49:13.192Z,95.56
2018-12-24T02:51:44.190Z,95.44
2018-12-24T02:54:15.080Z,95.79
2018-12-24T02:56:46.077Z,95.80
2018-12-24T02:59:35.670Z,95.38
2018-12-24T03:02:07.097Z,95.38
2018-12-24T03:04:38.021Z,95.41
2018-12-24T03:07:09.081Z,95.01
2018-12-24T03:09:40.115Z,94.74
2018-12-24T03:12:11.060Z,94.58
2018-12-24T03:14:42.098Z,94.29
2018-12-24T03:17:13.330Z,94.08
2018-12-24T03:19:44.202Z,94.05
2018-12-24T03:22:15.524Z,93.90
2018-12-24T03:24:46.366Z,93.75
2018-12-24T03:27:17.391Z,93.77
2018-12-24T03:29:48.292Z,93.79
2018-12-24T03:32:19.161Z,93.91
2018-12-24T03:34:50.367Z,93.90
2018-12-24T03:37:21.359Z,93.88
2018-12-24T03:42:29.206Z,93.69
2018-12-24T03:45:00.296Z,93.75
2018-12-24T03:47:31.246Z,93.95
2018-12-24T03:50:02.152Z,94.11
2018-12-24T03:52:33.204Z,94.25
2018-12-24T03:55:04.065Z,94.88
2018-12-24T03:57:35.207Z,95.84
2018-12-24T04:00:06.428Z,96.83
2018-12-24T04:02:37.389Z,97.56
2018-12-24T04:05:08.349Z,97.94
2018-12-24T04:07:39.214Z,98.17
2018-12-24T04:10:10.492Z,98.63
2018-12-24T04:12:41.456Z,98.90
2018-12-24T04:15:12.412Z,99.00
2018-12-24T04:17:43.304Z,99.17
2018-12-24T04:20:14.284Z,99.28
2018-12-24T04:22:45.147Z,99.26
2018-12-24T04:27:52.500Z,99.19
2018-12-24T04:30:23.337Z,99.03
2018-12-24T04:32:54.281Z,98.92
2018-12-24T04:35:25.194Z,98.86
2018-12-24T04:40:32.678Z,98.64
2018-12-24T04:43:03.840Z,98.77
2018-12-24T04:45:35.087Z,98.82
2018-12-24T04:48:06.318Z,98.75
2018-12-24T04:50:37.340Z,99.14
2018-12-24T04:53:08.481Z,99.20
2018-12-24T04:55:39.470Z,99.18
2018-12-24T04:58:10.405Z,98.86
2018-12-24T05:00:41.821Z,98.28
2018-12-24T05:03:13.120Z,98.19
2018-12-24T05:05:44.017Z,97.93
2018-12-24T05:08:15.313Z,97.10
2018-12-24T05:10:46.361Z,96.60
2018-12-24T05:13:17.341Z,96.58
2018-12-24T05:15:48.606Z,96.71
2018-12-24T05:18:19.860Z,96.12
2018-12-24T05:20:51.077Z,96.23
2018-12-24T05:23:22.140Z,96.56
2018-12-24T05:25:53.008Z,95.64
2018-12-24T05:31:00.082Z,95.79
2018-12-24T05:33:31.040Z,95.34
2018-12-24T05:36:02.044Z,95.36
2018-12-24T05:38:33.031Z,95.08
2018-12-24T05:41:04.277Z,94.51
2018-12-24T05:43:35.616Z,94.67
2018-12-24T05:46:06.498Z,93.92
2018-12-24T05:48:37.459Z,93.32
2018-12-24T05:51:08.324Z,92.73
2018-12-24T05:53:39.433Z,92.61
2018-12-24T05:56:10.286Z,92.61
2018-12-24T05:58:41.290Z,93.40
2018-12-24T06:01:12.218Z,93.26
2018-12-24T06:04:01.789Z,92.85
2018-12-24T06:06:33.127Z,92.70
2018-12-24T06:09:04.705Z,93.65
2018-12-24T06:11:35.905Z,93.31
2018-12-24T06:14:07.089Z,93.16
2018-12-24T06:16:38.399Z,92.44
2018-12-24T06:19:09.320Z,92.96
2018-12-24T06:21:40.326Z,92.70
2018-12-24T06:24:11.192Z,93.04
2018-12-24T06:26:42.202Z,93.31
2018-12-24T06:29:31.739Z,92.89
2018-12-24T06:34:40.019Z,92.46
2018-12-24T06:37:12.606Z,92.19
2018-12-24T06:39:43.512Z,91.96
2018-12-24T06:42:14.419Z,91.31
2018-12-24T06:44:45.429Z,92.04
2018-12-24T06:47:16.289Z,91.46
2018-12-24T06:49:47.284Z,91.11
2018-12-24T06:52:18.297Z,91.68
2018-12-24T06:54:49.395Z,91.88
2018-12-24T06:57:21.429Z,91.65
2018-12-24T06:59:52.335Z,92.11
2018-12-24T07:02:23.316Z,92.17
2018-12-24T07:04:54.591Z,92.55
2018-12-24T07:07:25.569Z,92.66
2018-12-24T07:09:56.532Z,92.98
2018-12-24T07:12:27.476Z,92.69
2018-12-24T07:17:34.527Z,92.58
2018-12-24T07:20:24.093Z,91.98
2018-12-24T07:22:55.382Z,91.98
2018-12-24T07:25:26.384Z,91.77
2018-12-24T07:27:57.509Z,91.19
2018-12-24T07:30:28.403Z,91.47
2018-12-24T07:35:56.068Z,90.61
2018-12-24T07:38:27.139Z,88.85
2018-12-24T07:40:58.370Z,88.18
2018-12-24T07:43:30.063Z,88.11
2018-12-24T07:46:01.308Z,88.89
2018-12-24T07:48:32.361Z,89.42
2018-12-24T07:51:03.459Z,89.63
2018-12-24T07:53:35.366Z,88.44
2018-12-24T07:58:36.705Z,86.17
2018-12-24T08:01:09.095Z,86.19
2018-12-24T08:03:40.394Z,86.15
2018-12-24T08:06:11.307Z,86.72
2018-12-24T08:08:42.354Z,85.55
2018-12-24T08:11:13.308Z,85.14
2018-12-24T08:13:44.476Z,85.26
2018-12-24T08:16:15.503Z,85.86
2018-12-24T08:18:46.434Z,84.45
2018-12-24T08:21:17.300Z,82.85
2018-12-24T08:23:48.419Z,82.93
2018-12-24T08:26:19.667Z,82.11
2018-12-24T08:28:50.998Z,82.53
2018-12-24T08:31:22.095Z,82.21
2018-12-24T08:33:53.017Z,81.64
2018-12-24T08:36:24.272Z,81.69
2018-12-24T08:38:55.214Z,81.70
2018-12-24T08:41:26.285Z,82.52
2018-12-24T08:43:57.377Z,82.64
2018-12-24T08:46:28.451Z,82.55
2018-12-24T08:48:59.399Z,82.77
2018-12-24T08:51:30.348Z,82.80
2018-12-24T08:54:01.343Z,83.04
2018-12-24T08:56:32.277Z,82.94
2018-12-24T08:59:03.338Z,82.83
2018-12-24T09:01:34.305Z,82.91
2018-12-24T09:04:05.250Z,83.14
2018-12-24T09:06:36.436Z,83.00
2018-12-24T09:09:09.168Z,83.66
2018-12-24T09:11:40.556Z,83.14
2018-12-24T09:14:50.567Z,82.87
2018-12-24T09:20:02.395Z,81.85
2018-12-24T09:22:33.400Z,80.99
2018-12-24T09:25:04.828Z,80.07
2018-12-24T09:27:54.830Z,80.44
2018-12-24T09:30:26.485Z,80.44
2018-12-24T09:32:57.569Z,79.90
2018-12-24T09:35:28.616Z,79.58
2018-12-24T09:38:38.371Z,79.70
2018-12-24T09:41:28.254Z,79.82
2018-12-24T09:46:36.478Z,79.63
2018-12-24T09:54:20.594Z,79.36
2018-12-24T09:56:51.572Z,79.60
2018-12-24T09:59:22.617Z,79.23
2018-12-24T10:01:53.632Z,79.37
2018-12-24T10:04:33.253Z,79.85
2018-12-24T10:10:21.467Z,77.00
2018-12-24T10:18:50.988Z,77.26
2018-12-24T10:27:13.161Z,73.92
2018-12-24T10:29:44.464Z,72.31
2018-12-24T10:32:15.800Z,72.88
2018-12-24T10:37:40.289Z,72.84
2018-12-24T10:40:18.921Z,72.85
2018-12-24T10:42:51.070Z,72.90
2018-12-24T10:48:36.786Z,73.14
2018-12-24T10:51:08.006Z,73.43
2018-12-24T10:53:39.151Z,74.55
2018-12-24T10:56:10.186Z,75.18
2018-12-24T11:01:48.431Z,76.21
2018-12-24T11:04:19.407Z,76.40
2018-12-24T11:06:50.332Z,74.47
2018-12-24T11:09:21.258Z,74.40
2018-12-24T11:11:52.675Z,74.94
2018-12-24T11:14:43.376Z,75.69
2018-12-24T11:17:14.379Z,74.72
2018-12-24T11:19:45.677Z,75.41
2018-12-24T11:22:17.046Z,75.82
2018-12-24T11:24:48.170Z,75.37
2018-12-24T11:27:19.170Z,74.66
2018-12-24T11:29:50.237Z,73.87
2018-12-24T11:32:21.191Z,73.92
2018-12-24T11:34:52.606Z,73.44
2018-12-24T11:37:23.507Z,73.98
2018-12-24T11:42:31.318Z,72.85
2018-12-24T11:45:02.443Z,73.27
2018-12-24T11:47:33.370Z,72.80
2018-12-24T11:50:04.471Z,73.55
2018-12-24T11:52:35.488Z,73.46
2018-12-24T11:55:06.502Z,73.41
2018-12-24T12:00:36.277Z,73.62
2018-12-24T12:03:07.283Z,73.71
2018-12-24T12:05:38.290Z,74.49
2018-12-24T12:08:09.498Z,74.25
2018-12-24T12:10:40.475Z,74.22
2018-12-24T12:13:31.644Z,73.90
2018-12-24T12:16:03.133Z,73.62
2018-12-24T12:18:34.215Z,74.00
2018-12-24T12:21:05.613Z,74.41
2018-12-24T12:23:55.241Z,74.25
2018-12-24T12:26:26.326Z,74.25
2018-12-24T12:29:36.760Z,74.55
2018-12-24T12:32:09.105Z,74.53
2018-12-24T12:34:48.271Z,75.40
2018-12-24T12:37:19.249Z,75.21
2018-12-24T12:39:50.245Z,74.95
2018-12-24T12:42:21.356Z,75.45
2018-12-24T12:44:52.422Z,75.25
2018-12-24T12:47:23.390Z,75.94
2018-12-24T12:49:54.448Z,75.61
2018-12-24T12:52:25.336Z,75.65
2018-12-24T12:57:52.411Z,76.10
2018-12-24T13:00:23.649Z,75.68
2018-12-24T13:02:54.615Z,75.85
2018-12-24T13:05:25.763Z,75.55
2018-12-24T13:07:57.192Z,74.85
2018-12-24T13:10:28.763Z,75.31
2018-12-24T13:15:59.681Z,75.49
2018-12-24T13:18:31.962Z,74.93
2018-12-24T13:23:40.517Z,75.76
2018-12-24T13:26:12.051Z,75.98
2018-12-24T13:28:43.565Z,75.90
2018-12-24T13:31:14.746Z,76.12
2018-12-24T13:33:46.116Z,76.05
2018-12-24T13:36:16.970Z,76.62
2018-12-24T13:38:48.829Z,76.25
2018-12-24T13:41:20.148Z,76.34
2018-12-24T13:43:52.341Z,76.46
2018-12-24T13:46:23.846Z,76.84
2018-12-24T13:48:55.968Z,76.54
2018-12-24T13:51:27.317Z,76.75
2018-12-24T13:53:58.225Z,76.37
2018-12-24T13:56:29.250Z,76.03
2018-12-24T13:59:18.914Z,75.63
2018-12-24T14:01:50.090Z,75.36
2018-12-24T14:04:21.238Z,75.59
2018-12-24T14:06:52.228Z,75.67
2018-12-24T14:09:23.181Z,75.86
2018-12-24T14:11:54.552Z,76.22
2018-12-24T14:14:25.697Z,76.30
2018-12-24T14:16:56.594Z,76.97
2018-12-24T14:19:27.601Z,76.97
2018-12-24T14:21:58.857Z,76.87
2018-12-24T14:24:30.219Z,77.16
2018-12-24T14:27:01.166Z,77.53
2018-12-24T14:29:33.470Z,78.08
2018-12-24T14:32:04.549Z,77.98
2018-12-24T14:34:35.450Z,78.04
2018-12-24T14:37:06.554Z,78.78
2018-12-24T14:39:37.427Z,78.79
2018-12-24T14:42:08.307Z,79.62
2018-12-24T14:44:39.236Z,79.42
2018-12-24T14:47:10.249Z,80.05
2018-12-24T14:49:41.426Z,80.19
2018-12-24T14:52:12.319Z,80.37
2018-12-24T14:54:43.245Z,80.94
2018-12-24T14:57:14.430Z,81.01
2018-12-24T14:59:45.665Z,81.29
2018-12-24T15:02:17.617Z,81.59
2018-12-24T15:04:50.026Z,81.76
2018-12-24T15:07:21.310Z,81.83
2018-12-24T15:09:52.724Z,82.48
2018-12-24T15:15:39.871Z,84.45
2018-12-24T15:18:11.106Z,85.25
2018-12-24T15:20:42.057Z,85.64
2018-12-24T15:23:13.424Z,86.81
2018-12-24T15:25:44.303Z,87.25
2018-12-24T15:28:15.437Z,87.46
2018-12-24T15:30:46.333Z,87.65
2018-12-24T15:33:17.329Z,87.68
2018-12-24T15:35:48.298Z,88.15
2018-12-24T15:38:19.174Z,88.52
2018-12-24T15:40:50.255Z,88.66
2018-12-24T15:43:21.221Z,89.37
2018-12-24T15:45:52.411Z,89.64
2018-12-24T15:48:23.471Z,90.15
2018-12-24T15:50:54.453Z,89.76
2018-12-24T15:53:25.448Z,89.08
2018-12-24T15:55:56.406Z,89.59
2018-12-24T15:58:27.366Z,88.74
2018-12-24T16:00:58.675Z,87.31
2018-12-24T16:03:36.768Z,86.99
2018-12-24T16:06:03.080Z,85.98
2018-12-24T16:08:34.406Z,85.96
2018-12-24T16:11:05.287Z,85.34
2018-12-24T16:13:36.191Z,84.74
2018-12-24T16:16:07.127Z,84.19
2018-12-24T16:18:38.034Z,83.35
2018-12-24T16:21:09.385Z,82.59
2018-12-24T16:23:40.328Z,82.12
2018-12-24T16:26:11.632Z,82.09
2018-12-24T16:28:42.939Z,81.86
2018-12-24T16:31:14.097Z,80.61
2018-12-24T16:33:45.722Z,80.71
2018-12-24T16:36:16.881Z,80.78
2018-12-24T16:38:48.132Z,80.40
2018-12-24T16:41:19.140Z,80.12
2018-12-24T16:43:50.159Z,79.29
2018-12-24T16:46:21.548Z,79.63
2018-12-24T16:48:52.657Z,79.81
2018-12-24T16:51:24.970Z,79.41
2018-12-24T16:53:56.239Z,78.98
2018-12-24T16:56:27.159Z,78.64
2018-12-24T17:01:35.212Z,79.73
2018-12-24T17:07:02.392Z,78.46
2018-12-24T17:09:33.727Z,78.84
2018-12-24T17:12:04.720Z,79.17
2018-12-24T17:14:54.640Z,79.69
2018-12-24T17:17:25.899Z,79.69
2018-12-24T17:19:57.096Z,80.08
2018-12-24T17:23:08.083Z,80.52
2018-12-24T17:28:55.704Z,80.04
2018-12-24T17:31:26.946Z,79.87
2018-12-24T17:36:35.066Z,78.63
2018-12-24T17:39:08.151Z,78.19
2018-12-24T17:41:39.146Z,77.40
2018-12-24T17:44:10.378Z,77.71
2018-12-24T17:46:41.294Z,77.48
2018-12-24T17:49:12.468Z,78.05
2018-12-24T17:51:43.504Z,77.95
2018-12-24T17:54:14.442Z,77.00
2018-12-24T17:56:46.450Z,76.24
2018-12-24T17:59:17.403Z,75.83
2018-12-24T18:01:48.377Z,76.02
2018-12-24T18:04:19.422Z,75.58
2018-12-24T18:06:50.373Z,75.34
2018-12-24T18:09:21.444Z,75.03
2018-12-24T18:11:52.808Z,74.90
2018-12-24T18:14:24.451Z,74.47
2018-12-24T18:16:55.709Z,73.37
2018-12-24T18:19:26.894Z,73.25
2018-12-24T18:21:57.982Z,73.55
2018-12-24T18:25:07.633Z,73.87
2018-12-24T18:30:15.141Z,73.57
2018-12-24T18:35:23.109Z,74.11
2018-12-24T18:37:53.996Z,73.75
2018-12-24T18:40:25.281Z,74.35
2018-12-24T18:42:56.337Z,74.03
2018-12-24T18:45:27.341Z,73.45
2018-12-24T18:47:58.212Z,72.95
2018-12-24T18:50:29.403Z,72.60
2018-12-24T18:53:00.848Z,73.30
2018-12-24T18:55:32.081Z,73.37
2018-12-24T18:58:03.245Z,72.55
2018-12-24T19:00:34.137Z,72.07
2018-12-24T19:03:05.263Z,72.05
2018-12-24T19:05:36.464Z,72.65
2018-12-24T19:08:07.381Z,72.95
2018-12-24T19:10:38.443Z,73.04
2018-12-24T19:13:09.374Z,73.37
2018-12-24T19:15:40.315Z,73.75
2018-12-24T19:18:11.245Z,74.42
2018-12-24T19:20:42.294Z,75.09
2018-12-24T19:23:13.353Z,74.75
2018-12-24T19:25:44.340Z,75.07
2018-12-24T19:28:15.201Z,75.69
2018-12-24T19:30:46.748Z,76.02
2018-12-24T19:33:19.013Z,76.59
2018-12-24T19:35:50.479Z,77.54
2018-12-24T19:38:21.447Z,78.07
2018-12-24T19:40:52.337Z,78.65
2018-12-24T19:43:23.321Z,78.83
2018-12-24T19:45:54.769Z,79.00
2018-12-24T19:57:12.001Z,79.79
2018-12-24T19:59:44.602Z,80.22
2018-12-24T20:02:50.978Z,79.87
2018-12-24T20:04:52.443Z,79.48
2018-12-24T20:07:23.980Z,79.35
2018-12-24T20:09:56.132Z,79.62
2018-12-24T20:12:27.752Z,79.40
2018-12-24T20:20:40.187Z,76.21
2018-12-24T20:25:53.414Z,74.97
2018-12-24T20:28:26.885Z,73.97
2018-12-24T20:31:38.959Z,74.70
2018-12-24T20:34:10.285Z,75.17
2018-12-24T20:36:41.564Z,75.33
2018-12-24T20:39:12.726Z,75.43
2018-12-24T20:41:43.897Z,75.84
2018-12-24T20:47:13.290Z,75.96
2018-12-24T20:49:46.831Z,76.46
2018-12-24T20:52:19.063Z,76.72
2018-12-24T20:54:51.211Z,77.06
2018-12-24T20:57:23.904Z,76.86
2018-12-24T21:00:02.560Z,76.33
2018-12-24T21:02:35.088Z,76.27
2018-12-24T21:05:08.140Z,76.64
2018-12-24T21:07:40.045Z,76.54
2018-12-24T21:10:11.834Z,76.36
2018-12-24T21:23:33.393Z,76.21
2018-12-24T21:26:04.283Z,76.02
2018-12-24T21:28:35.451Z,76.15
2018-12-24T21:34:16.532Z,75.97
2018-12-24T21:36:47.694Z,76.27
2018-12-24T21:39:19.065Z,76.43
2018-12-24T21:42:09.327Z,76.72
2018-12-24T21:44:58.893Z,76.58
2018-12-24T21:47:30.480Z,76.48
2018-12-24T21:50:01.672Z,76.76
2018-12-24T21:55:25.803Z,77.61
2018-12-24T21:57:57.385Z,78.08
2018-12-24T22:00:28.796Z,78.35
2018-12-24T22:03:00.467Z,78.37
2018-12-24T22:05:31.648Z,79.05
2018-12-24T22:08:03.940Z,79.61
2018-12-24T22:16:24.331Z,80.97
2018-12-24T22:18:56.960Z,81.14
2018-12-24T22:21:30.359Z,81.31
2018-12-24T22:24:02.540Z,81.38
2018-12-24T22:26:34.796Z,81.59
2018-12-24T22:29:07.919Z,81.83
2018-12-24T22:31:40.923Z,81.81
2018-12-24T22:34:12.750Z,81.75
2018-12-24T22:36:45.637Z,81.96
2018-12-24T22:39:17.250Z,81.83
2018-12-24T22:41:49.641Z,81.83
2018-12-24T22:47:17.561Z,81.27
2018-12-24T22:50:04.898Z,80.96
2018-12-24T22:52:39.853Z,81.02
2018-12-24T22:55:11.123Z,80.77
2018-12-24T22:57:42.535Z,80.31
2018-12-24T23:03:09.353Z,79.96
2018-12-24T23:05:40.213Z,79.86
2018-12-24T23:08:11.590Z,79.76
2018-12-24T23:10:43.196Z,79.78
2018-12-24T23:13:14.773Z,79.38
2018-12-24T23:15:46.066Z,79.19
2018-12-24T23:18:17.285Z,79.24
2018-12-24T23:20:48.453Z,79.17
2018-12-24T23:23:19.457Z,79.05
2018-12-24T23:25:50.316Z,79.23
2018-12-24T23:28:21.292Z,79.15
2018-12-24T23:30:52.244Z,79.12
2018-12-24T23:33:23.163Z,79.29
2018-12-24T23:35:54.103Z,79.36
2018-12-24T23:38:25.019Z,79.36
2018-12-24T23:40:57.590Z,78.96
2018-12-24T23:43:28.446Z,79.18
2018-12-24T23:46:00.559Z,79.03
2018-12-24T23:48:31.522Z,78.72
2018-12-24T23:51:02.394Z,79.08
2018-12-24T23:56:09.333Z,79.32
2018-12-24T23:58:40.732Z,79.39
